sensor_id;sensor_type;location;lat;lon;timestamp;P1;durP1;ratioP1;P2;durP2;ratioP2
5752;SDS011;2901;42.140;24.760;2024-03-17T00:01:18;12.65;;;11.43;;
5752;SDS011;2901;42.140;24.760;2024-03-17T00:03:43;14.55;;;12.93;;
5752;SDS011;2901;42.140;24.760;2024-03-17T00:06:09;11.60;;;10.63;;
5752;SDS011;2901;42.140;24.760;2024-03-17T00:08:35;12.02;;;10.88;;
5752;SDS011;2901;42.140;24.760;2024-03-17T00:11:00;13.57;;;12.20;;
5752;SDS011;2901;42.140;24.760;2024-03-17T00:13:25;12.43;;;11.30;;
5752;SDS011;2901;42.140;24.760;2024-03-17T00:15:51;11.93;;;10.95;;
5752;SDS011;2901;42.140;24.760;2024-03-17T00:18:16;12.73;;;11.45;;
5752;SDS011;2901;42.140;24.760;2024-03-17T00:20:42;12.32;;;10.95;;
5752;SDS011;2901;42.140;24.760;2024-03-17T00:23:08;14.15;;;12.85;;
5752;SDS011;2901;42.140;24.760;2024-03-17T00:25:34;12.30;;;11.07;;
5752;SDS011;2901;42.140;24.760;2024-03-17T00:28:01;15.70;;;12.20;;
5752;SDS011;2901;42.140;24.760;2024-03-17T00:30:26;18.85;;;11.75;;
5752;SDS011;2901;42.140;24.760;2024-03-17T00:32:52;13.60;;;11.98;;
5752;SDS011;2901;42.140;24.760;2024-03-17T00:35:18;12.95;;;11.68;;
5752;SDS011;2901;42.140;24.760;2024-03-17T00:37:47;13.20;;;12.10;;
5752;SDS011;2901;42.140;24.760;2024-03-17T00:40:13;12.00;;;10.95;;
5752;SDS011;2901;42.140;24.760;2024-03-17T00:42:39;13.00;;;11.93;;
5752;SDS011;2901;42.140;24.760;2024-03-17T00:45:04;12.25;;;11.13;;
5752;SDS011;2901;42.140;24.760;2024-03-17T00:47:31;12.88;;;11.65;;
5752;SDS011;2901;42.140;24.760;2024-03-17T00:49:57;13.35;;;12.13;;
5752;SDS011;2901;42.140;24.760;2024-03-17T00:52:22;13.63;;;12.20;;
5752;SDS011;2901;42.140;24.760;2024-03-17T00:54:48;13.20;;;11.98;;
5752;SDS011;2901;42.140;24.760;2024-03-17T00:57:13;13.65;;;11.73;;
5752;SDS011;2901;42.140;24.760;2024-03-17T00:59:40;12.95;;;11.85;;
5752;SDS011;2901;42.140;24.760;2024-03-17T01:02:08;14.43;;;12.15;;
5752;SDS011;2901;42.140;24.760;2024-03-17T01:04:33;13.07;;;11.88;;
5752;SDS011;2901;42.140;24.760;2024-03-17T01:06:59;14.60;;;13.00;;
5752;SDS011;2901;42.140;24.760;2024-03-17T01:09:25;17.42;;;12.65;;
5752;SDS011;2901;42.140;24.760;2024-03-17T01:11:50;18.02;;;12.93;;
5752;SDS011;2901;42.140;24.760;2024-03-17T01:14:15;14.13;;;12.02;;
5752;SDS011;2901;42.140;24.760;2024-03-17T01:16:41;18.75;;;14.07;;
5752;SDS011;2901;42.140;24.760;2024-03-17T01:19:06;14.73;;;13.20;;
5752;SDS011;2901;42.140;24.760;2024-03-17T01:21:32;18.30;;;13.27;;
5752;SDS011;2901;42.140;24.760;2024-03-17T01:23:57;16.73;;;13.65;;
5752;SDS011;2901;42.140;24.760;2024-03-17T01:26:22;14.80;;;13.18;;
5752;SDS011;2901;42.140;24.760;2024-03-17T01:28:49;15.05;;;13.02;;
5752;SDS011;2901;42.140;24.760;2024-03-17T01:31:14;14.23;;;12.93;;
5752;SDS011;2901;42.140;24.760;2024-03-17T01:33:40;16.45;;;13.82;;
5752;SDS011;2901;42.140;24.760;2024-03-17T01:36:05;15.05;;;13.60;;
5752;SDS011;2901;42.140;24.760;2024-03-17T01:38:31;18.25;;;14.70;;
5752;SDS011;2901;42.140;24.760;2024-03-17T01:40:57;21.08;;;15.52;;
5752;SDS011;2901;42.140;24.760;2024-03-17T01:43:23;15.90;;;13.95;;
5752;SDS011;2901;42.140;24.760;2024-03-17T01:45:49;15.38;;;13.77;;
5752;SDS011;2901;42.140;24.760;2024-03-17T01:48:15;18.42;;;14.10;;
5752;SDS011;2901;42.140;24.760;2024-03-17T01:50:44;22.25;;;14.65;;
5752;SDS011;2901;42.140;24.760;2024-03-17T01:53:13;15.07;;;13.50;;
5752;SDS011;2901;42.140;24.760;2024-03-17T01:55:40;15.93;;;14.23;;
5752;SDS011;2901;42.140;24.760;2024-03-17T01:58:08;17.08;;;14.43;;
5752;SDS011;2901;42.140;24.760;2024-03-17T02:00:35;17.65;;;14.80;;
5752;SDS011;2901;42.140;24.760;2024-03-17T02:03:10;17.02;;;14.05;;
5752;SDS011;2901;42.140;24.760;2024-03-17T02:05:38;17.60;;;14.68;;
5752;SDS011;2901;42.140;24.760;2024-03-17T02:08:04;18.00;;;14.45;;
5752;SDS011;2901;42.140;24.760;2024-03-17T02:10:36;20.33;;;15.05;;
5752;SDS011;2901;42.140;24.760;2024-03-17T02:13:02;15.95;;;14.50;;
5752;SDS011;2901;42.140;24.760;2024-03-17T02:15:28;20.05;;;14.93;;
5752;SDS011;2901;42.140;24.760;2024-03-17T02:17:54;15.45;;;13.95;;
5752;SDS011;2901;42.140;24.760;2024-03-17T02:20:20;15.48;;;13.98;;
5752;SDS011;2901;42.140;24.760;2024-03-17T02:22:49;16.13;;;14.35;;
5752;SDS011;2901;42.140;24.760;2024-03-17T02:25:15;18.10;;;14.95;;
5752;SDS011;2901;42.140;24.760;2024-03-17T02:27:40;20.88;;;14.35;;
5752;SDS011;2901;42.140;24.760;2024-03-17T02:30:06;16.58;;;14.13;;
5752;SDS011;2901;42.140;24.760;2024-03-17T02:32:35;17.25;;;14.85;;
5752;SDS011;2901;42.140;24.760;2024-03-17T02:35:00;18.63;;;15.63;;
5752;SDS011;2901;42.140;24.760;2024-03-17T02:37:26;16.52;;;14.75;;
5752;SDS011;2901;42.140;24.760;2024-03-17T02:39:52;16.88;;;15.05;;
5752;SDS011;2901;42.140;24.760;2024-03-17T02:42:18;19.10;;;14.90;;
5752;SDS011;2901;42.140;24.760;2024-03-17T02:44:44;18.65;;;15.10;;
5752;SDS011;2901;42.140;24.760;2024-03-17T02:47:09;17.20;;;15.30;;
5752;SDS011;2901;42.140;24.760;2024-03-17T02:49:35;18.92;;;15.68;;
5752;SDS011;2901;42.140;24.760;2024-03-17T02:52:12;18.17;;;16.23;;
5752;SDS011;2901;42.140;24.760;2024-03-17T02:54:38;18.90;;;16.30;;
5752;SDS011;2901;42.140;24.760;2024-03-17T02:57:05;19.43;;;16.13;;
5752;SDS011;2901;42.140;24.760;2024-03-17T02:59:31;18.33;;;15.80;;
5752;SDS011;2901;42.140;24.760;2024-03-17T03:01:58;21.05;;;15.35;;
5752;SDS011;2901;42.140;24.760;2024-03-17T03:04:24;18.23;;;15.70;;
5752;SDS011;2901;42.140;24.760;2024-03-17T03:06:50;18.05;;;16.02;;
5752;SDS011;2901;42.140;24.760;2024-03-17T03:09:15;17.67;;;15.77;;
5752;SDS011;2901;42.140;24.760;2024-03-17T03:11:46;24.92;;;17.77;;
5752;SDS011;2901;42.140;24.760;2024-03-17T03:14:12;22.02;;;19.20;;
5752;SDS011;2901;42.140;24.760;2024-03-17T03:16:38;26.50;;;21.52;;
5752;SDS011;2901;42.140;24.760;2024-03-17T03:19:03;23.52;;;19.08;;
5752;SDS011;2901;42.140;24.760;2024-03-17T03:21:30;31.02;;;21.52;;
5752;SDS011;2901;42.140;24.760;2024-03-17T03:23:56;28.87;;;21.33;;
5752;SDS011;2901;42.140;24.760;2024-03-17T03:26:21;25.88;;;19.85;;
5752;SDS011;2901;42.140;24.760;2024-03-17T03:28:48;26.37;;;19.83;;
5752;SDS011;2901;42.140;24.760;2024-03-17T03:31:14;27.95;;;18.90;;
5752;SDS011;2901;42.140;24.760;2024-03-17T03:33:40;23.83;;;19.03;;
5752;SDS011;2901;42.140;24.760;2024-03-17T03:36:12;24.90;;;20.03;;
5752;SDS011;2901;42.140;24.760;2024-03-17T03:38:41;23.65;;;18.80;;
5752;SDS011;2901;42.140;24.760;2024-03-17T03:41:10;25.03;;;18.83;;
5752;SDS011;2901;42.140;24.760;2024-03-17T03:43:38;25.88;;;18.55;;
5752;SDS011;2901;42.140;24.760;2024-03-17T03:46:04;25.30;;;20.17;;
5752;SDS011;2901;42.140;24.760;2024-03-17T03:48:31;28.90;;;22.00;;
5752;SDS011;2901;42.140;24.760;2024-03-17T03:50:57;27.08;;;19.38;;
5752;SDS011;2901;42.140;24.760;2024-03-17T03:53:22;29.80;;;20.45;;
5752;SDS011;2901;42.140;24.760;2024-03-17T03:55:48;29.25;;;23.27;;
5752;SDS011;2901;42.140;24.760;2024-03-17T03:58:14;29.60;;;20.70;;
5752;SDS011;2901;42.140;24.760;2024-03-17T04:00:39;31.70;;;21.88;;
5752;SDS011;2901;42.140;24.760;2024-03-17T04:03:05;31.25;;;22.15;;
5752;SDS011;2901;42.140;24.760;2024-03-17T04:05:30;26.38;;;19.92;;
5752;SDS011;2901;42.140;24.760;2024-03-17T04:07:56;27.52;;;20.23;;
5752;SDS011;2901;42.140;24.760;2024-03-17T04:10:23;29.83;;;20.92;;
5752;SDS011;2901;42.140;24.760;2024-03-17T04:12:49;26.98;;;21.30;;
5752;SDS011;2901;42.140;24.760;2024-03-17T04:15:15;30.60;;;20.88;;
5752;SDS011;2901;42.140;24.760;2024-03-17T04:17:40;28.77;;;22.03;;
5752;SDS011;2901;42.140;24.760;2024-03-17T04:20:07;32.17;;;22.42;;
5752;SDS011;2901;42.140;24.760;2024-03-17T04:22:35;30.90;;;21.27;;
5752;SDS011;2901;42.140;24.760;2024-03-17T04:25:01;33.97;;;22.00;;
5752;SDS011;2901;42.140;24.760;2024-03-17T04:27:28;27.50;;;19.60;;
5752;SDS011;2901;42.140;24.760;2024-03-17T04:29:54;31.45;;;21.17;;
5752;SDS011;2901;42.140;24.760;2024-03-17T04:32:22;28.88;;;20.90;;
5752;SDS011;2901;42.140;24.760;2024-03-17T04:34:48;28.87;;;20.87;;
5752;SDS011;2901;42.140;24.760;2024-03-17T04:37:14;28.50;;;21.35;;
5752;SDS011;2901;42.140;24.760;2024-03-17T04:39:41;29.33;;;20.67;;
5752;SDS011;2901;42.140;24.760;2024-03-17T04:42:11;38.27;;;22.27;;
5752;SDS011;2901;42.140;24.760;2024-03-17T04:44:37;31.67;;;21.67;;
5752;SDS011;2901;42.140;24.760;2024-03-17T04:47:03;31.55;;;21.25;;
5752;SDS011;2901;42.140;24.760;2024-03-17T04:49:38;27.77;;;21.63;;
5752;SDS011;2901;42.140;24.760;2024-03-17T04:52:08;29.23;;;20.83;;
5752;SDS011;2901;42.140;24.760;2024-03-17T04:54:34;32.13;;;21.57;;
5752;SDS011;2901;42.140;24.760;2024-03-17T04:57:00;34.07;;;22.43;;
5752;SDS011;2901;42.140;24.760;2024-03-17T04:59:26;32.75;;;22.30;;
5752;SDS011;2901;42.140;24.760;2024-03-17T05:01:52;29.95;;;21.00;;
5752;SDS011;2901;42.140;24.760;2024-03-17T05:04:18;27.92;;;20.50;;
5752;SDS011;2901;42.140;24.760;2024-03-17T05:06:43;33.00;;;21.57;;
5752;SDS011;2901;42.140;24.760;2024-03-17T05:09:12;34.25;;;21.90;;
5752;SDS011;2901;42.140;24.760;2024-03-17T05:11:38;32.35;;;21.45;;
5752;SDS011;2901;42.140;24.760;2024-03-17T05:14:04;38.92;;;23.10;;
5752;SDS011;2901;42.140;24.760;2024-03-17T05:16:30;31.60;;;23.23;;
5752;SDS011;2901;42.140;24.760;2024-03-17T05:18:55;37.45;;;23.00;;
5752;SDS011;2901;42.140;24.760;2024-03-17T05:21:21;33.72;;;23.45;;
5752;SDS011;2901;42.140;24.760;2024-03-17T05:23:47;29.65;;;20.83;;
5752;SDS011;2901;42.140;24.760;2024-03-17T05:26:13;29.75;;;20.90;;
5752;SDS011;2901;42.140;24.760;2024-03-17T05:28:39;27.58;;;22.10;;
5752;SDS011;2901;42.140;24.760;2024-03-17T05:31:04;31.80;;;22.05;;
5752;SDS011;2901;42.140;24.760;2024-03-17T05:33:30;31.08;;;22.50;;
5752;SDS011;2901;42.140;24.760;2024-03-17T05:35:58;28.15;;;19.05;;
5752;SDS011;2901;42.140;24.760;2024-03-17T05:38:26;25.67;;;19.13;;
5752;SDS011;2901;42.140;24.760;2024-03-17T05:40:53;32.67;;;23.33;;
5752;SDS011;2901;42.140;24.760;2024-03-17T05:43:25;30.13;;;20.35;;
5752;SDS011;2901;42.140;24.760;2024-03-17T05:45:58;37.90;;;20.30;;
5752;SDS011;2901;42.140;24.760;2024-03-17T05:48:28;26.38;;;18.55;;
5752;SDS011;2901;42.140;24.760;2024-03-17T05:50:54;28.63;;;20.33;;
5752;SDS011;2901;42.140;24.760;2024-03-17T05:53:20;27.58;;;20.40;;
5752;SDS011;2901;42.140;24.760;2024-03-17T05:55:49;26.17;;;19.70;;
5752;SDS011;2901;42.140;24.760;2024-03-17T05:58:15;28.67;;;20.50;;
5752;SDS011;2901;42.140;24.760;2024-03-17T06:00:40;31.40;;;21.20;;
5752;SDS011;2901;42.140;24.760;2024-03-17T06:03:06;30.77;;;19.65;;
5752;SDS011;2901;42.140;24.760;2024-03-17T06:05:35;31.30;;;21.77;;
5752;SDS011;2901;42.140;24.760;2024-03-17T06:08:02;28.02;;;20.13;;
5752;SDS011;2901;42.140;24.760;2024-03-17T06:10:29;25.55;;;20.52;;
5752;SDS011;2901;42.140;24.760;2024-03-17T06:12:56;34.80;;;20.98;;
5752;SDS011;2901;42.140;24.760;2024-03-17T06:15:22;26.63;;;19.63;;
5752;SDS011;2901;42.140;24.760;2024-03-17T06:17:49;32.40;;;20.40;;
5752;SDS011;2901;42.140;24.760;2024-03-17T06:20:17;31.20;;;21.80;;
5752;SDS011;2901;42.140;24.760;2024-03-17T06:22:46;30.02;;;20.38;;
5752;SDS011;2901;42.140;24.760;2024-03-17T06:25:12;27.75;;;21.80;;
5752;SDS011;2901;42.140;24.760;2024-03-17T06:27:41;29.13;;;21.00;;
5752;SDS011;2901;42.140;24.760;2024-03-17T06:30:10;30.10;;;21.23;;
5752;SDS011;2901;42.140;24.760;2024-03-17T06:32:39;34.30;;;24.80;;
5752;SDS011;2901;42.140;24.760;2024-03-17T06:35:10;42.22;;;26.98;;
5752;SDS011;2901;42.140;24.760;2024-03-17T06:37:45;29.42;;;20.08;;
5752;SDS011;2901;42.140;24.760;2024-03-17T06:40:12;30.00;;;20.77;;
5752;SDS011;2901;42.140;24.760;2024-03-17T06:42:39;30.33;;;21.38;;
5752;SDS011;2901;42.140;24.760;2024-03-17T06:45:04;36.38;;;24.02;;
5752;SDS011;2901;42.140;24.760;2024-03-17T06:47:30;32.70;;;22.05;;
5752;SDS011;2901;42.140;24.760;2024-03-17T06:49:56;34.42;;;22.15;;
5752;SDS011;2901;42.140;24.760;2024-03-17T06:52:21;31.50;;;23.02;;
5752;SDS011;2901;42.140;24.760;2024-03-17T06:54:47;29.70;;;21.60;;
5752;SDS011;2901;42.140;24.760;2024-03-17T06:57:15;31.45;;;21.63;;
5752;SDS011;2901;42.140;24.760;2024-03-17T06:59:40;27.90;;;21.27;;
5752;SDS011;2901;42.140;24.760;2024-03-17T07:02:06;29.73;;;21.90;;
5752;SDS011;2901;42.140;24.760;2024-03-17T07:04:32;25.90;;;20.17;;
5752;SDS011;2901;42.140;24.760;2024-03-17T07:06:57;23.48;;;20.17;;
5752;SDS011;2901;42.140;24.760;2024-03-17T07:09:22;27.65;;;20.10;;
5752;SDS011;2901;42.140;24.760;2024-03-17T07:11:48;24.92;;;19.35;;
5752;SDS011;2901;42.140;24.760;2024-03-17T07:14:14;31.25;;;20.75;;
5752;SDS011;2901;42.140;24.760;2024-03-17T07:16:39;25.85;;;20.48;;
5752;SDS011;2901;42.140;24.760;2024-03-17T07:19:05;33.65;;;22.15;;
5752;SDS011;2901;42.140;24.760;2024-03-17T07:21:30;31.40;;;21.33;;
5752;SDS011;2901;42.140;24.760;2024-03-17T07:23:59;25.42;;;20.65;;
5752;SDS011;2901;42.140;24.760;2024-03-17T07:26:29;23.67;;;21.05;;
5752;SDS011;2901;42.140;24.760;2024-03-17T07:28:55;30.27;;;20.95;;
5752;SDS011;2901;42.140;24.760;2024-03-17T07:31:20;26.13;;;20.33;;
5752;SDS011;2901;42.140;24.760;2024-03-17T07:33:46;28.02;;;20.60;;
5752;SDS011;2901;42.140;24.760;2024-03-17T07:36:13;31.58;;;20.73;;
5752;SDS011;2901;42.140;24.760;2024-03-17T07:38:38;25.75;;;20.80;;
5752;SDS011;2901;42.140;24.760;2024-03-17T07:41:05;28.65;;;21.17;;
5752;SDS011;2901;42.140;24.760;2024-03-17T07:43:32;26.83;;;21.13;;
5752;SDS011;2901;42.140;24.760;2024-03-17T07:46:03;28.08;;;20.95;;
5752;SDS011;2901;42.140;24.760;2024-03-17T07:48:30;27.33;;;20.95;;
5752;SDS011;2901;42.140;24.760;2024-03-17T07:50:57;26.02;;;19.50;;
5752;SDS011;2901;42.140;24.760;2024-03-17T07:53:33;26.63;;;20.70;;
5752;SDS011;2901;42.140;24.760;2024-03-17T07:58:25;38.05;;;22.52;;
5752;SDS011;2901;42.140;24.760;2024-03-17T08:00:51;58.40;;;27.17;;
5752;SDS011;2901;42.140;24.760;2024-03-17T08:03:18;34.58;;;21.27;;
5752;SDS011;2901;42.140;24.760;2024-03-17T08:05:47;24.25;;;20.50;;
5752;SDS011;2901;42.140;24.760;2024-03-17T08:08:14;18.50;;;15.35;;
5752;SDS011;2901;42.140;24.760;2024-03-17T08:10:40;15.50;;;13.93;;
5752;SDS011;2901;42.140;24.760;2024-03-17T08:13:05;15.20;;;13.55;;
5752;SDS011;2901;42.140;24.760;2024-03-17T08:15:30;14.82;;;13.48;;
5752;SDS011;2901;42.140;24.760;2024-03-17T08:17:56;19.30;;;14.50;;
5752;SDS011;2901;42.140;24.760;2024-03-17T08:20:21;15.90;;;14.13;;
5752;SDS011;2901;42.140;24.760;2024-03-17T08:22:46;15.13;;;13.52;;
5752;SDS011;2901;42.140;24.760;2024-03-17T08:25:12;17.15;;;15.27;;
5752;SDS011;2901;42.140;24.760;2024-03-17T08:27:37;17.23;;;14.95;;
5752;SDS011;2901;42.140;24.760;2024-03-17T08:30:03;17.67;;;14.57;;
5752;SDS011;2901;42.140;24.760;2024-03-17T08:32:28;19.88;;;16.35;;
5752;SDS011;2901;42.140;24.760;2024-03-17T08:34:54;17.65;;;16.02;;
5752;SDS011;2901;42.140;24.760;2024-03-17T08:37:20;17.50;;;15.70;;
5752;SDS011;2901;42.140;24.760;2024-03-17T08:39:46;24.90;;;16.42;;
5752;SDS011;2901;42.140;24.760;2024-03-17T08:42:12;21.48;;;15.43;;
5752;SDS011;2901;42.140;24.760;2024-03-17T08:44:37;20.83;;;17.60;;
5752;SDS011;2901;42.140;24.760;2024-03-17T08:47:03;21.20;;;18.92;;
5752;SDS011;2901;42.140;24.760;2024-03-17T08:49:29;26.42;;;21.17;;
5752;SDS011;2901;42.140;24.760;2024-03-17T08:51:54;26.33;;;18.10;;
5752;SDS011;2901;42.140;24.760;2024-03-17T08:54:19;21.00;;;17.15;;
5752;SDS011;2901;42.140;24.760;2024-03-17T08:56:45;20.73;;;16.85;;
5752;SDS011;2901;42.140;24.760;2024-03-17T08:59:10;17.02;;;15.23;;
5752;SDS011;2901;42.140;24.760;2024-03-17T09:01:37;18.55;;;15.85;;
5752;SDS011;2901;42.140;24.760;2024-03-17T09:04:02;18.75;;;16.33;;
5752;SDS011;2901;42.140;24.760;2024-03-17T09:06:28;18.65;;;16.85;;
5752;SDS011;2901;42.140;24.760;2024-03-17T09:08:55;18.85;;;16.88;;
5752;SDS011;2901;42.140;24.760;2024-03-17T09:11:20;20.95;;;17.45;;
5752;SDS011;2901;42.140;24.760;2024-03-17T09:13:50;20.00;;;17.35;;
5752;SDS011;2901;42.140;24.760;2024-03-17T09:16:15;23.92;;;16.63;;
5752;SDS011;2901;42.140;24.760;2024-03-17T09:18:43;19.40;;;17.40;;
5752;SDS011;2901;42.140;24.760;2024-03-17T09:21:09;17.63;;;15.73;;
5752;SDS011;2901;42.140;24.760;2024-03-17T09:23:35;17.42;;;15.65;;
5752;SDS011;2901;42.140;24.760;2024-03-17T09:26:05;19.75;;;16.10;;
5752;SDS011;2901;42.140;24.760;2024-03-17T09:28:36;18.60;;;14.95;;
5752;SDS011;2901;42.140;24.760;2024-03-17T09:31:02;17.73;;;16.02;;
5752;SDS011;2901;42.140;24.760;2024-03-17T09:33:30;21.33;;;17.35;;
5752;SDS011;2901;42.140;24.760;2024-03-17T09:35:59;19.10;;;17.20;;
5752;SDS011;2901;42.140;24.760;2024-03-17T09:38:26;18.58;;;16.35;;
5752;SDS011;2901;42.140;24.760;2024-03-17T09:40:53;19.23;;;16.67;;
5752;SDS011;2901;42.140;24.760;2024-03-17T09:43:22;23.75;;;17.17;;
5752;SDS011;2901;42.140;24.760;2024-03-17T09:45:48;20.42;;;17.15;;
5752;SDS011;2901;42.140;24.760;2024-03-17T09:48:15;19.30;;;16.88;;
5752;SDS011;2901;42.140;24.760;2024-03-17T09:51:05;17.83;;;16.10;;
5752;SDS011;2901;42.140;24.760;2024-03-17T09:53:31;21.40;;;17.30;;
5752;SDS011;2901;42.140;24.760;2024-03-17T09:55:59;17.25;;;15.55;;
5752;SDS011;2901;42.140;24.760;2024-03-17T09:58:28;18.05;;;16.20;;
5752;SDS011;2901;42.140;24.760;2024-03-17T10:00:53;17.48;;;15.75;;
5752;SDS011;2901;42.140;24.760;2024-03-17T10:06:17;16.80;;;14.90;;
5752;SDS011;2901;42.140;24.760;2024-03-17T10:08:55;22.67;;;17.65;;
5752;SDS011;2901;42.140;24.760;2024-03-17T10:11:24;19.88;;;17.45;;
5752;SDS011;2901;42.140;24.760;2024-03-17T10:16:26;22.90;;;17.90;;
5752;SDS011;2901;42.140;24.760;2024-03-17T10:21:46;18.65;;;16.67;;
5752;SDS011;2901;42.140;24.760;2024-03-17T10:24:25;17.75;;;15.82;;
5752;SDS011;2901;42.140;24.760;2024-03-17T10:26:54;18.80;;;16.77;;
5752;SDS011;2901;42.140;24.760;2024-03-17T10:29:24;21.35;;;17.13;;
5752;SDS011;2901;42.140;24.760;2024-03-17T10:31:54;21.55;;;19.25;;
5752;SDS011;2901;42.140;24.760;2024-03-17T10:34:21;18.73;;;16.75;;
5752;SDS011;2901;42.140;24.760;2024-03-17T10:36:49;19.67;;;17.65;;
5752;SDS011;2901;42.140;24.760;2024-03-17T10:39:31;19.10;;;17.05;;
5752;SDS011;2901;42.140;24.760;2024-03-17T10:41:58;22.35;;;17.55;;
5752;SDS011;2901;42.140;24.760;2024-03-17T10:44:26;19.75;;;17.77;;
5752;SDS011;2901;42.140;24.760;2024-03-17T10:46:54;18.88;;;16.63;;
5752;SDS011;2901;42.140;24.760;2024-03-17T10:49:23;19.67;;;17.20;;
5752;SDS011;2901;42.140;24.760;2024-03-17T10:51:52;19.67;;;17.00;;
5752;SDS011;2901;42.140;24.760;2024-03-17T10:54:23;17.55;;;15.88;;
5752;SDS011;2901;42.140;24.760;2024-03-17T10:56:56;17.38;;;15.52;;
5752;SDS011;2901;42.140;24.760;2024-03-17T10:59:38;18.50;;;16.63;;
5752;SDS011;2901;42.140;24.760;2024-03-17T11:02:12;17.58;;;15.85;;
5752;SDS011;2901;42.140;24.760;2024-03-17T11:04:48;18.17;;;15.55;;
5752;SDS011;2901;42.140;24.760;2024-03-17T11:07:16;19.17;;;15.25;;
5752;SDS011;2901;42.140;24.760;2024-03-17T11:09:44;17.00;;;14.02;;
5752;SDS011;2901;42.140;24.760;2024-03-17T11:20:35;22.08;;;14.10;;
5752;SDS011;2901;42.140;24.760;2024-03-17T11:23:05;13.63;;;12.40;;
5752;SDS011;2901;42.140;24.760;2024-03-17T11:28:01;13.98;;;12.95;;
5752;SDS011;2901;42.140;24.760;2024-03-17T11:41:48;13.15;;;11.98;;
5752;SDS011;2901;42.140;24.760;2024-03-17T11:49:35;13.77;;;12.68;;
5752;SDS011;2901;42.140;24.760;2024-03-17T11:52:05;13.63;;;12.38;;
5752;SDS011;2901;42.140;24.760;2024-03-17T11:54:38;13.60;;;12.35;;
5752;SDS011;2901;42.140;24.760;2024-03-17T11:57:08;12.90;;;11.95;;
5752;SDS011;2901;42.140;24.760;2024-03-17T11:59:35;12.63;;;11.65;;
5752;SDS011;2901;42.140;24.760;2024-03-17T12:04:57;12.88;;;11.68;;
5752;SDS011;2901;42.140;24.760;2024-03-17T12:07:23;11.98;;;11.07;;
5752;SDS011;2901;42.140;24.760;2024-03-17T12:09:52;13.32;;;12.02;;
5752;SDS011;2901;42.140;24.760;2024-03-17T12:12:25;12.02;;;10.73;;
5752;SDS011;2901;42.140;24.760;2024-03-17T12:15:00;11.52;;;10.60;;
5752;SDS011;2901;42.140;24.760;2024-03-17T12:17:27;11.65;;;10.60;;
5752;SDS011;2901;42.140;24.760;2024-03-17T12:19:53;11.32;;;10.48;;
5752;SDS011;2901;42.140;24.760;2024-03-17T12:22:21;12.23;;;11.15;;
5752;SDS011;2901;42.140;24.760;2024-03-17T12:24:48;13.50;;;12.15;;
5752;SDS011;2901;42.140;24.760;2024-03-17T12:27:18;7.30;;;6.80;;
5752;SDS011;2901;42.140;24.760;2024-03-17T12:29:45;6.55;;;6.25;;
5752;SDS011;2901;42.140;24.760;2024-03-17T12:32:13;6.43;;;6.10;;
5752;SDS011;2901;42.140;24.760;2024-03-17T12:34:43;7.28;;;6.78;;
5752;SDS011;2901;42.140;24.760;2024-03-17T12:37:17;7.10;;;6.60;;
5752;SDS011;2901;42.140;24.760;2024-03-17T12:39:43;6.18;;;5.68;;
5752;SDS011;2901;42.140;24.760;2024-03-17T12:47:15;5.68;;;5.28;;
5752;SDS011;2901;42.140;24.760;2024-03-17T12:52:22;4.70;;;4.40;;
5752;SDS011;2901;42.140;24.760;2024-03-17T12:55:01;4.70;;;4.50;;
5752;SDS011;2901;42.140;24.760;2024-03-17T12:57:49;5.03;;;4.57;;
5752;SDS011;2901;42.140;24.760;2024-03-17T13:00:33;3.95;;;3.75;;
5752;SDS011;2901;42.140;24.760;2024-03-17T13:03:03;4.63;;;4.20;;
5752;SDS011;2901;42.140;24.760;2024-03-17T13:05:32;5.80;;;5.28;;
5752;SDS011;2901;42.140;24.760;2024-03-17T13:07:58;4.95;;;4.75;;
5752;SDS011;2901;42.140;24.760;2024-03-17T13:10:24;4.22;;;4.03;;
5752;SDS011;2901;42.140;24.760;2024-03-17T13:13:07;4.80;;;4.40;;
5752;SDS011;2901;42.140;24.760;2024-03-17T13:15:34;5.35;;;5.15;;
5752;SDS011;2901;42.140;24.760;2024-03-17T13:18:01;4.30;;;4.10;;
5752;SDS011;2901;42.140;24.760;2024-03-17T13:20:28;4.20;;;4.00;;
5752;SDS011;2901;42.140;24.760;2024-03-17T13:22:55;4.18;;;3.97;;
5752;SDS011;2901;42.140;24.760;2024-03-17T13:25:22;4.10;;;3.90;;
5752;SDS011;2901;42.140;24.760;2024-03-17T13:27:50;4.55;;;4.35;;
5752;SDS011;2901;42.140;24.760;2024-03-17T13:30:16;4.47;;;4.28;;
5752;SDS011;2901;42.140;24.760;2024-03-17T13:32:43;4.35;;;4.10;;
5752;SDS011;2901;42.140;24.760;2024-03-17T13:35:19;4.57;;;4.38;;
5752;SDS011;2901;42.140;24.760;2024-03-17T13:37:45;4.25;;;3.95;;
5752;SDS011;2901;42.140;24.760;2024-03-17T13:40:12;4.10;;;3.90;;
5752;SDS011;2901;42.140;24.760;2024-03-17T13:42:41;5.30;;;4.95;;
5752;SDS011;2901;42.140;24.760;2024-03-17T13:45:10;5.00;;;4.70;;
5752;SDS011;2901;42.140;24.760;2024-03-17T13:47:37;5.07;;;4.78;;
5752;SDS011;2901;42.140;24.760;2024-03-17T13:50:04;5.13;;;4.82;;
5752;SDS011;2901;42.140;24.760;2024-03-17T13:52:35;4.95;;;4.65;;
5752;SDS011;2901;42.140;24.760;2024-03-17T13:55:00;4.90;;;4.38;;
5752;SDS011;2901;42.140;24.760;2024-03-17T13:57:27;4.25;;;4.05;;
5752;SDS011;2901;42.140;24.760;2024-03-17T13:59:53;4.32;;;4.13;;
5752;SDS011;2901;42.140;24.760;2024-03-17T14:02:22;3.65;;;3.55;;
5752;SDS011;2901;42.140;24.760;2024-03-17T14:04:47;4.60;;;4.25;;
5752;SDS011;2901;42.140;24.760;2024-03-17T14:07:13;3.70;;;3.50;;
5752;SDS011;2901;42.140;24.760;2024-03-17T14:09:39;4.60;;;4.40;;
5752;SDS011;2901;42.140;24.760;2024-03-17T14:12:07;4.15;;;3.95;;
5752;SDS011;2901;42.140;24.760;2024-03-17T14:14:33;4.35;;;4.05;;
5752;SDS011;2901;42.140;24.760;2024-03-17T14:16:58;4.28;;;3.97;;
5752;SDS011;2901;42.140;24.760;2024-03-17T14:19:23;4.15;;;3.95;;
5752;SDS011;2901;42.140;24.760;2024-03-17T14:21:49;4.78;;;4.57;;
5752;SDS011;2901;42.140;24.760;2024-03-17T14:24:16;3.90;;;3.70;;
5752;SDS011;2901;42.140;24.760;2024-03-17T14:26:41;4.38;;;4.07;;
5752;SDS011;2901;42.140;24.760;2024-03-17T14:29:07;3.85;;;3.65;;
5752;SDS011;2901;42.140;24.760;2024-03-17T14:31:32;4.10;;;3.80;;
5752;SDS011;2901;42.140;24.760;2024-03-17T14:34:01;4.30;;;4.10;;
5752;SDS011;2901;42.140;24.760;2024-03-17T14:36:27;5.25;;;3.80;;
5752;SDS011;2901;42.140;24.760;2024-03-17T14:38:54;4.28;;;4.07;;
5752;SDS011;2901;42.140;24.760;2024-03-17T14:41:20;4.55;;;4.25;;
5752;SDS011;2901;42.140;24.760;2024-03-17T14:43:45;4.00;;;3.80;;
5752;SDS011;2901;42.140;24.760;2024-03-17T14:46:11;4.78;;;4.30;;
5752;SDS011;2901;42.140;24.760;2024-03-17T14:48:39;4.63;;;4.32;;
5752;SDS011;2901;42.140;24.760;2024-03-17T14:51:05;4.70;;;4.10;;
5752;SDS011;2901;42.140;24.760;2024-03-17T14:53:31;5.78;;;4.25;;
5752;SDS011;2901;42.140;24.760;2024-03-17T14:55:56;4.90;;;4.32;;
5752;SDS011;2901;42.140;24.760;2024-03-17T14:58:22;5.43;;;5.00;;
5752;SDS011;2901;42.140;24.760;2024-03-17T15:00:47;4.45;;;4.18;;
5752;SDS011;2901;42.140;24.760;2024-03-17T15:03:13;4.47;;;4.10;;
5752;SDS011;2901;42.140;24.760;2024-03-17T15:05:38;4.25;;;4.05;;
5752;SDS011;2901;42.140;24.760;2024-03-17T15:08:04;4.57;;;4.38;;
5752;SDS011;2901;42.140;24.760;2024-03-17T15:10:30;5.03;;;4.80;;
5752;SDS011;2901;42.140;24.760;2024-03-17T15:12:56;5.32;;;4.85;;
5752;SDS011;2901;42.140;24.760;2024-03-17T15:15:21;4.65;;;4.35;;
5752;SDS011;2901;42.140;24.760;2024-03-17T15:17:47;4.93;;;4.50;;
5752;SDS011;2901;42.140;24.760;2024-03-17T15:20:15;11.05;;;5.22;;
5752;SDS011;2901;42.140;24.760;2024-03-17T15:22:50;6.05;;;5.18;;
5752;SDS011;2901;42.140;24.760;2024-03-17T15:25:16;4.35;;;4.15;;
5752;SDS011;2901;42.140;24.760;2024-03-17T15:27:43;5.13;;;4.75;;
5752;SDS011;2901;42.140;24.760;2024-03-17T15:30:16;5.10;;;4.63;;